createdAt,value
2018-12-27T00:00:04.787Z,4.30
2018-12-27T00:01:04.829Z,4.30
2018-12-27T00:02:07.452Z,4.30
2018-12-27T00:03:05.365Z,4.30
2018-12-27T00:04:10.467Z,4.30
2018-12-27T00:05:05.386Z,4.20
2018-12-27T00:06:05.463Z,4.30
2018-12-27T00:07:05.610Z,4.30
2018-12-27T00:08:05.708Z,4.30
2018-12-27T00:09:07.373Z,4.30
2018-12-27T00:10:07.889Z,4.30
2018-12-27T00:11:07.531Z,4.30
2018-12-27T00:12:08.312Z,4.30
2018-12-27T00:13:05.380Z,4.30
2018-12-27T00:14:08.025Z,4.30
2018-12-27T00:15:04.947Z,4.30
2018-12-27T00:16:05.012Z,4.30
2018-12-27T00:17:05.279Z,4.30
2018-12-27T00:18:05.363Z,4.20
2018-12-27T00:19:05.510Z,4.30
2018-12-27T00:20:08.043Z,4.30
2018-12-27T00:21:05.046Z,4.30
2018-12-27T00:22:07.855Z,4.30
2018-12-27T00:23:07.548Z,4.30
2018-12-27T00:24:05.632Z,4.20
2018-12-27T00:25:04.713Z,4.30
2018-12-27T00:26:04.880Z,4.30
2018-12-27T00:27:07.496Z,4.30
2018-12-27T00:28:05.612Z,4.30
2018-12-27T00:29:04.716Z,4.30
2018-12-27T00:30:07.739Z,4.30
2018-12-27T00:31:07.368Z,4.20
2018-12-27T00:32:07.913Z,4.30
2018-12-27T00:33:04.911Z,4.30
2018-12-27T00:34:05.078Z,4.30
2018-12-27T00:35:05.083Z,4.30
2018-12-27T00:36:07.746Z,4.30
2018-12-27T00:37:04.738Z,4.30
2018-12-27T00:38:04.835Z,4.20
2018-12-27T00:39:07.664Z,4.30
2018-12-27T00:40:10.734Z,4.20
2018-12-27T00:41:04.825Z,4.20
2018-12-27T00:42:04.949Z,4.20
2018-12-27T00:43:05.088Z,4.20
2018-12-27T00:44:05.138Z,4.30
2018-12-27T00:45:07.786Z,4.20
2018-12-27T00:46:04.825Z,4.20
2018-12-27T00:47:04.968Z,4.20
2018-12-27T00:48:05.064Z,4.20
2018-12-27T00:49:05.204Z,4.20
2018-12-27T00:50:08.163Z,4.20
2018-12-27T00:51:05.114Z,4.20
2018-12-27T00:52:07.727Z,4.20
2018-12-27T00:53:08.268Z,4.20
2018-12-27T00:54:07.707Z,4.20
2018-12-27T00:55:05.649Z,4.20
2018-12-27T00:56:04.727Z,4.20
2018-12-27T00:57:09.857Z,4.20
2018-12-27T00:58:04.779Z,4.20
2018-12-27T00:59:07.482Z,4.20
2018-12-27T01:00:08.316Z,4.20
2018-12-27T01:01:08.047Z,4.20
2018-12-27T01:02:05.055Z,4.20
2018-12-27T01:03:10.974Z,4.20
2018-12-27T01:04:05.571Z,4.20
2018-12-27T01:05:08.214Z,4.20
2018-12-27T01:06:07.798Z,4.20
2018-12-27T01:07:07.250Z,4.20
2018-12-27T01:08:05.191Z,4.20
2018-12-27T01:09:05.221Z,4.20
2018-12-27T01:10:07.983Z,4.20
2018-12-27T01:11:07.560Z,4.20
2018-12-27T01:12:05.591Z,4.20
2018-12-27T01:13:05.621Z,4.20
2018-12-27T01:14:04.870Z,4.20
2018-12-27T01:15:07.645Z,4.20
2018-12-27T01:16:08.282Z,4.20
2018-12-27T01:17:05.400Z,4.20
2018-12-27T01:18:08.218Z,4.20
2018-12-27T01:19:07.735Z,4.20
2018-12-27T01:20:08.340Z,4.20
2018-12-27T01:21:05.374Z,4.20
2018-12-27T01:22:05.565Z,4.20
2018-12-27T01:23:05.729Z,4.20
2018-12-27T01:24:07.326Z,4.20
2018-12-27T01:25:07.847Z,4.20
2018-12-27T01:26:04.750Z,4.20
2018-12-27T01:27:04.786Z,4.20
2018-12-27T01:28:07.390Z,4.20
2018-12-27T01:29:05.248Z,4.20
2018-12-27T01:30:04.807Z,4.20
2018-12-27T01:31:04.972Z,4.20
2018-12-27T01:32:07.666Z,4.20
2018-12-27T01:33:04.677Z,4.20
2018-12-27T01:34:07.301Z,4.20
2018-12-27T01:35:05.336Z,4.20
2018-12-27T01:36:05.616Z,4.20
2018-12-27T01:37:04.694Z,4.20
2018-12-27T01:38:04.882Z,4.20
2018-12-27T01:39:05.089Z,4.20
2018-12-27T01:40:07.668Z,4.20
2018-12-27T01:41:08.129Z,4.10
2018-12-27T01:42:05.064Z,4.20
2018-12-27T01:43:05.099Z,4.20
2018-12-27T01:44:05.092Z,4.20
2018-12-27T01:45:07.695Z,4.20
2018-12-27T01:46:08.112Z,4.20
2018-12-27T01:47:05.005Z,4.20
2018-12-27T01:48:07.597Z,4.20
2018-12-27T01:49:08.084Z,4.20
2018-12-27T01:50:07.519Z,4.20
2018-12-27T01:51:07.994Z,4.20
2018-12-27T01:52:04.999Z,4.20
2018-12-27T01:53:05.059Z,4.20
2018-12-27T01:54:10.254Z,4.20
2018-12-27T01:55:05.199Z,4.20
2018-12-27T01:56:07.724Z,4.20
2018-12-27T01:57:04.838Z,4.20
2018-12-27T01:58:07.557Z,4.20
2018-12-27T01:59:05.649Z,4.20
2018-12-27T02:00:07.401Z,4.20
2018-12-27T02:01:05.391Z,4.20
2018-12-27T02:02:05.519Z,4.20
2018-12-27T02:03:05.586Z,4.20
2018-12-27T02:04:05.595Z,4.20
2018-12-27T02:05:05.830Z,4.20
2018-12-27T02:06:05.139Z,4.20
2018-12-27T02:07:05.240Z,4.20
2018-12-27T02:08:05.273Z,4.20
2018-12-27T02:09:10.351Z,4.10
2018-12-27T02:10:05.308Z,4.10
2018-12-27T02:11:05.252Z,4.20
2018-12-27T02:12:05.376Z,4.20
2018-12-27T02:13:07.524Z,4.20
2018-12-27T02:14:08.012Z,4.20
2018-12-27T02:15:04.895Z,4.10
2018-12-27T02:16:07.523Z,4.20
2018-12-27T02:17:05.510Z,4.10
2018-12-27T02:18:08.293Z,4.10
2018-12-27T02:19:07.739Z,4.20
2018-12-27T02:20:10.643Z,4.10
2018-12-27T02:21:08.217Z,4.20
2018-12-27T02:22:05.152Z,4.10
2018-12-27T02:23:07.756Z,4.10
2018-12-27T02:24:08.190Z,4.10
2018-12-27T02:25:05.199Z,4.10
2018-12-27T02:26:05.266Z,4.10
2018-12-27T02:27:05.504Z,4.10
2018-12-27T02:28:08.136Z,4.10
2018-12-27T02:29:05.137Z,4.10
2018-12-27T02:30:05.177Z,4.20
2018-12-27T02:31:07.836Z,4.10
2018-12-27T02:32:04.813Z,4.10
2018-12-27T02:33:04.903Z,4.10
2018-12-27T02:34:04.977Z,4.10
2018-12-27T02:35:07.691Z,4.10
2018-12-27T02:36:05.794Z,4.20
2018-12-27T02:37:04.915Z,4.10
2018-12-27T02:38:05.067Z,4.10
2018-12-27T02:39:05.219Z,4.10
2018-12-27T02:40:05.392Z,4.10
2018-12-27T02:41:11.058Z,4.10
2018-12-27T02:42:08.199Z,4.10
2018-12-27T02:43:07.685Z,4.10
2018-12-27T02:44:08.136Z,4.10
2018-12-27T02:45:05.092Z,4.10
2018-12-27T02:46:10.338Z,4.10
2018-12-27T02:47:05.305Z,4.10
2018-12-27T02:48:07.933Z,4.10
2018-12-27T02:49:04.858Z,4.10
2018-12-27T02:50:05.076Z,4.10
2018-12-27T02:51:05.080Z,4.10
2018-12-27T02:52:05.270Z,4.10
2018-12-27T02:53:08.065Z,4.10
2018-12-27T02:54:07.497Z,4.10
2018-12-27T02:55:07.998Z,4.10
2018-12-27T02:56:04.873Z,4.10
2018-12-27T02:57:05.087Z,4.10
2018-12-27T02:58:05.123Z,4.10
2018-12-27T02:59:07.391Z,4.10
2018-12-27T03:00:05.290Z,4.10
2018-12-27T03:01:05.385Z,4.10
2018-12-27T03:02:07.904Z,4.10
2018-12-27T03:03:07.539Z,4.10
2018-12-27T03:04:05.481Z,4.10
2018-12-27T03:05:05.381Z,4.10
2018-12-27T03:06:07.884Z,4.10
2018-12-27T03:07:04.774Z,4.10
2018-12-27T03:08:04.894Z,4.10
2018-12-27T03:09:08.053Z,4.10
2018-12-27T03:10:05.001Z,4.10
2018-12-27T03:11:07.642Z,4.10
2018-12-27T03:12:05.686Z,4.10
2018-12-27T03:13:07.333Z,4.10
2018-12-27T03:14:05.175Z,4.10
2018-12-27T03:15:05.321Z,4.10
2018-12-27T03:16:05.587Z,4.10
2018-12-27T03:17:07.358Z,4.10
2018-12-27T03:18:05.278Z,4.10
2018-12-27T03:19:05.311Z,4.10
2018-12-27T03:20:05.331Z,4.10
2018-12-27T03:21:05.410Z,4.10
2018-12-27T03:22:05.543Z,4.10
2018-12-27T03:23:04.741Z,4.10
2018-12-27T03:24:07.267Z,4.10
2018-12-27T03:25:05.186Z,4.00
2018-12-27T03:26:05.252Z,4.10
2018-12-27T03:27:05.233Z,4.10
2018-12-27T03:28:07.903Z,4.10
2018-12-27T03:29:04.908Z,4.10
2018-12-27T03:30:05.138Z,4.10
2018-12-27T03:31:07.849Z,4.00
2018-12-27T03:32:07.313Z,4.10
2018-12-27T03:33:10.334Z,4.10
2018-12-27T03:34:05.333Z,4.00
2018-12-27T03:35:05.417Z,4.10
2018-12-27T03:36:08.084Z,4.10
2018-12-27T03:37:05.089Z,4.00
2018-12-27T03:38:05.228Z,4.10
2018-12-27T03:39:07.886Z,4.10
2018-12-27T03:40:07.258Z,4.00
2018-12-27T03:41:10.398Z,4.00
2018-12-27T03:42:05.360Z,4.00
2018-12-27T03:43:07.659Z,4.10
2018-12-27T03:44:08.175Z,4.00
2018-12-27T03:45:07.804Z,4.10
2018-12-27T03:46:07.349Z,4.10
2018-12-27T03:47:05.250Z,4.00
2018-12-27T03:48:05.327Z,4.00
2018-12-27T03:49:05.369Z,4.00
2018-12-27T03:50:05.465Z,4.10
2018-12-27T03:51:05.584Z,4.10
2018-12-27T03:52:04.703Z,4.10
2018-12-27T03:53:07.387Z,4.00
2018-12-27T03:54:05.315Z,4.00
2018-12-27T03:55:07.889Z,4.10
2018-12-27T03:56:04.971Z,4.00
2018-12-27T03:57:05.062Z,4.00
2018-12-27T03:58:05.122Z,4.10
2018-12-27T03:59:05.129Z,4.00
2018-12-27T04:00:05.258Z,4.00
2018-12-27T04:01:10.427Z,4.00
2018-12-27T04:02:07.944Z,4.10
2018-12-27T04:03:07.558Z,4.00
2018-12-27T04:04:05.544Z,4.00
2018-12-27T04:05:05.617Z,4.00
2018-12-27T04:06:07.239Z,4.00
2018-12-27T04:07:07.714Z,4.00
2018-12-27T04:08:05.617Z,4.00
2018-12-27T04:09:07.189Z,4.10
2018-12-27T04:10:05.053Z,4.10
2018-12-27T04:11:07.703Z,4.10
2018-12-27T04:12:08.159Z,4.00
2018-12-27T04:13:05.146Z,4.00
2018-12-27T04:14:05.359Z,4.00
2018-12-27T04:15:05.478Z,4.00
2018-12-27T04:16:05.687Z,4.00
2018-12-27T04:17:04.885Z,4.00
2018-12-27T04:18:04.990Z,4.00
2018-12-27T04:19:05.045Z,4.00
2018-12-27T04:20:07.685Z,4.00
2018-12-27T04:21:04.699Z,4.00
2018-12-27T04:22:04.710Z,4.00
2018-12-27T04:23:04.887Z,4.00
2018-12-27T04:24:04.900Z,4.00
2018-12-27T04:25:04.890Z,4.00
2018-12-27T04:26:05.110Z,4.00
2018-12-27T04:27:07.721Z,4.00
2018-12-27T04:28:05.712Z,3.90
2018-12-27T04:29:04.822Z,4.00
2018-12-27T04:30:07.869Z,4.00
2018-12-27T04:31:07.391Z,4.00
2018-12-27T04:32:05.341Z,3.90
2018-12-27T04:33:05.499Z,3.90
2018-12-27T04:34:09.420Z,4.00
2018-12-27T04:35:04.726Z,4.00
2018-12-27T04:36:07.287Z,3.90
2018-12-27T04:37:05.294Z,3.90
2018-12-27T04:38:07.849Z,3.90
2018-12-27T04:39:04.914Z,3.90
2018-12-27T04:40:05.041Z,3.90
2018-12-27T04:41:05.152Z,3.90
2018-12-27T04:42:10.309Z,3.80
2018-12-27T04:43:05.192Z,3.80
2018-12-27T04:44:05.324Z,3.80
2018-12-27T04:45:07.875Z,3.80
2018-12-27T04:46:04.847Z,3.80
2018-12-27T04:47:10.034Z,3.80
2018-12-27T04:48:10.018Z,3.70
2018-12-27T04:49:07.533Z,3.80
2018-12-27T04:50:05.371Z,3.70
2018-12-27T04:51:08.099Z,3.70
2018-12-27T04:52:05.041Z,3.70
2018-12-27T04:53:07.715Z,3.70
2018-12-27T04:54:10.722Z,3.70
2018-12-27T04:55:05.766Z,3.70
2018-12-27T04:56:04.964Z,3.70
2018-12-27T04:57:07.624Z,3.60
2018-12-27T04:58:05.479Z,3.70
2018-12-27T04:59:08.108Z,3.70
2018-12-27T05:00:07.541Z,3.70
2018-12-27T05:01:05.433Z,3.70
2018-12-27T05:02:08.095Z,3.60
2018-12-27T05:03:05.214Z,3.70
2018-12-27T05:04:04.949Z,3.70
2018-12-27T05:05:07.576Z,3.70
2018-12-27T05:06:08.125Z,3.70
2018-12-27T05:07:07.589Z,3.60
2018-12-27T05:08:08.032Z,3.70
2018-12-27T05:09:05.049Z,3.60
2018-12-27T05:10:07.639Z,3.70
2018-12-27T05:11:08.312Z,3.60
2018-12-27T05:12:05.379Z,3.60
2018-12-27T05:13:08.090Z,3.60
2018-12-27T05:14:04.990Z,3.60
2018-12-27T05:15:07.658Z,3.70
2018-12-27T05:16:05.614Z,3.70
2018-12-27T05:17:05.736Z,3.70
2018-12-27T05:18:07.454Z,3.60
2018-12-27T05:19:05.417Z,3.70
2018-12-27T05:20:07.961Z,3.70
2018-12-27T05:21:04.853Z,3.60
2018-12-27T05:22:04.927Z,3.70
2018-12-27T05:23:07.583Z,3.70
2018-12-27T05:24:08.091Z,3.70
2018-12-27T05:25:08.006Z,3.70
2018-12-27T05:26:07.490Z,3.70
2018-12-27T05:27:08.137Z,3.70
2018-12-27T05:28:05.149Z,3.70
2018-12-27T05:29:05.367Z,3.70
2018-12-27T05:30:04.938Z,3.70
2018-12-27T05:31:05.127Z,3.70
2018-12-27T05:32:05.299Z,3.70
2018-12-27T05:33:05.516Z,3.70
2018-12-27T05:34:08.178Z,3.70
2018-12-27T05:35:05.130Z,3.70
2018-12-27T05:36:05.275Z,3.70
2018-12-27T05:37:05.319Z,3.70
2018-12-27T05:38:07.948Z,3.80
2018-12-27T05:39:07.520Z,3.70
2018-12-27T05:40:08.026Z,3.70
2018-12-27T05:41:07.531Z,3.70
2018-12-27T05:42:05.494Z,3.70
2018-12-27T05:43:05.571Z,3.70
2018-12-27T05:44:08.118Z,3.70
2018-12-27T05:45:07.735Z,3.80
2018-12-27T05:46:05.626Z,3.70
2018-12-27T05:47:04.717Z,3.70
2018-12-27T05:48:07.365Z,3.80
2018-12-27T05:49:07.833Z,3.70
2018-12-27T05:50:07.330Z,3.80
2018-12-27T05:51:05.187Z,3.70
2018-12-27T05:52:07.799Z,3.80
2018-12-27T05:53:04.746Z,3.70
2018-12-27T05:54:04.865Z,3.70
2018-12-27T05:55:07.543Z,3.70
2018-12-27T05:56:08.297Z,3.70
2018-12-27T05:57:07.763Z,3.70
2018-12-27T05:58:07.306Z,3.70
2018-12-27T05:59:07.869Z,3.70
2018-12-27T06:00:04.842Z,3.70
2018-12-27T06:01:04.894Z,3.80
2018-12-27T06:02:05.071Z,3.70
2018-12-27T06:03:05.214Z,3.70
2018-12-27T06:04:05.334Z,3.70
2018-12-27T06:05:08.165Z,3.70
2018-12-27T06:06:05.149Z,3.70
2018-12-27T06:07:07.838Z,3.70
2018-12-27T06:08:04.775Z,3.70
2018-12-27T06:09:04.886Z,3.70
2018-12-27T06:10:04.956Z,3.70
2018-12-27T06:11:04.974Z,3.70
2018-12-27T06:12:10.201Z,3.70
2018-12-27T06:13:07.691Z,3.70
2018-12-27T06:14:05.589Z,3.70
2018-12-27T06:15:04.749Z,3.70
2018-12-27T06:16:04.782Z,3.70
2018-12-27T06:17:04.962Z,3.70
2018-12-27T06:18:05.314Z,3.70
2018-12-27T06:19:07.857Z,3.70
2018-12-27T06:20:04.883Z,3.70
2018-12-27T06:21:10.040Z,3.70
2018-12-27T06:22:05.055Z,3.70
2018-12-27T06:23:05.321Z,3.70
2018-12-27T06:24:05.351Z,3.70
2018-12-27T06:25:05.358Z,3.70
2018-12-27T06:26:07.958Z,3.70
2018-12-27T06:27:07.374Z,3.70
2018-12-27T06:28:12.933Z,3.70
2018-12-27T06:29:04.798Z,3.70
2018-12-27T06:30:04.771Z,3.70
2018-12-27T06:31:04.786Z,3.70
2018-12-27T06:32:10.015Z,3.70
2018-12-27T06:33:05.070Z,3.70
2018-12-27T06:34:07.981Z,3.70
2018-12-27T06:35:07.386Z,3.70
2018-12-27T06:36:05.242Z,3.70
2018-12-27T06:37:04.744Z,3.70
2018-12-27T06:38:09.971Z,3.70
2018-12-27T06:39:04.905Z,3.70
2018-12-27T06:40:04.971Z,3.70
2018-12-27T06:41:05.301Z,3.70
2018-12-27T06:42:08.011Z,3.70
2018-12-27T06:43:04.983Z,3.70
2018-12-27T06:44:05.200Z,3.70
2018-12-27T06:45:07.968Z,3.70
2018-12-27T06:46:04.871Z,3.70
2018-12-27T06:47:04.944Z,3.60
2018-12-27T06:48:07.521Z,3.70
2018-12-27T06:49:07.999Z,3.60
2018-12-27T06:50:07.423Z,3.60
2018-12-27T06:51:05.395Z,3.60
2018-12-27T06:52:05.427Z,3.60
2018-12-27T06:53:05.472Z,3.60
2018-12-27T06:54:05.481Z,3.60
2018-12-27T06:55:08.130Z,3.60
2018-12-27T06:56:05.126Z,3.50
2018-12-27T06:57:07.770Z,3.60
2018-12-27T06:58:07.316Z,3.60
2018-12-27T06:59:05.178Z,3.60
2018-12-27T07:00:05.417Z,3.50
2018-12-27T07:01:05.662Z,3.50
2018-12-27T07:02:07.305Z,3.60
2018-12-27T07:03:07.779Z,3.60
2018-12-27T07:04:07.258Z,3.60
2018-12-27T07:05:07.723Z,3.60
2018-12-27T07:06:04.677Z,3.60
2018-12-27T07:07:09.938Z,3.60
2018-12-27T07:08:05.334Z,3.60
2018-12-27T07:09:05.514Z,3.60
2018-12-27T07:10:05.252Z,3.60
2018-12-27T07:11:05.591Z,3.60
2018-12-27T07:12:09.862Z,3.60
2018-12-27T07:13:04.995Z,3.60
2018-12-27T07:14:05.003Z,3.60
2018-12-27T07:15:07.581Z,3.60
2018-12-27T07:16:05.547Z,3.60
2018-12-27T07:17:08.105Z,3.70
2018-12-27T07:18:07.795Z,3.60
2018-12-27T07:19:07.341Z,3.60
2018-12-27T07:20:05.361Z,3.70
2018-12-27T07:21:05.464Z,3.70
2018-12-27T07:22:07.472Z,3.70
2018-12-27T07:23:07.844Z,3.70
2018-12-27T07:24:04.852Z,3.70
2018-12-27T07:25:07.729Z,3.70
2018-12-27T07:26:04.637Z,3.70
2018-12-27T07:27:04.774Z,3.70
2018-12-27T07:28:07.356Z,3.70
2018-12-27T07:29:05.220Z,3.70
2018-12-27T07:30:05.423Z,3.70
2018-12-27T07:31:05.601Z,3.70
2018-12-27T07:32:04.751Z,3.70
2018-12-27T07:33:04.846Z,3.70
2018-12-27T07:34:04.991Z,3.70
2018-12-27T07:35:05.126Z,3.70
2018-12-27T07:36:05.245Z,3.70
2018-12-27T07:37:05.368Z,3.70
2018-12-27T07:38:05.500Z,3.80
2018-12-27T07:39:05.635Z,3.70
2018-12-27T07:40:07.233Z,3.80
2018-12-27T07:41:05.149Z,3.80
2018-12-27T07:42:05.650Z,3.80
2018-12-27T07:43:07.281Z,3.80
2018-12-27T07:44:05.187Z,3.80
2018-12-27T07:45:05.306Z,3.80
2018-12-27T07:46:10.946Z,3.80
2018-12-27T07:47:05.688Z,3.80
2018-12-27T07:48:05.068Z,3.80
2018-12-27T07:49:05.213Z,3.80
2018-12-27T07:50:05.293Z,3.80
2018-12-27T07:51:05.461Z,3.80
2018-12-27T07:52:08.070Z,3.80
2018-12-27T07:53:05.108Z,3.80
2018-12-27T07:54:05.439Z,3.90
2018-12-27T07:55:05.533Z,3.90
2018-12-27T07:56:05.547Z,3.90
2018-12-27T07:57:05.658Z,3.90
2018-12-27T07:58:04.700Z,3.90
2018-12-27T07:59:07.299Z,3.90
2018-12-27T08:00:05.195Z,3.90
2018-12-27T08:01:05.245Z,4.00
2018-12-27T08:02:04.784Z,4.00
2018-12-27T08:03:04.894Z,3.90
2018-12-27T08:04:04.913Z,3.90
2018-12-27T08:05:10.051Z,4.00
2018-12-27T08:06:04.999Z,4.00
2018-12-27T08:07:05.155Z,4.00
2018-12-27T08:08:07.767Z,4.00
2018-12-27T08:09:05.651Z,4.00
2018-12-27T08:10:05.779Z,4.10
2018-12-27T08:11:05.028Z,4.10
2018-12-27T08:12:05.283Z,4.00
2018-12-27T08:13:05.374Z,4.10
2018-12-27T08:14:05.433Z,4.10
2018-12-27T08:15:07.352Z,4.10
2018-12-27T08:16:10.379Z,4.10
2018-12-27T08:17:05.407Z,4.10
2018-12-27T08:18:05.508Z,4.20
2018-12-27T08:19:05.588Z,4.20
2018-12-27T08:20:07.310Z,4.20
2018-12-27T08:21:05.212Z,4.20
2018-12-27T08:22:07.758Z,4.20
2018-12-27T08:23:07.187Z,4.20
2018-12-27T08:24:05.044Z,4.20
2018-12-27T08:25:05.101Z,4.30
2018-12-27T08:26:07.717Z,4.20
2018-12-27T08:27:05.651Z,4.20
2018-12-27T08:28:07.285Z,4.30
2018-12-27T08:29:05.314Z,4.30
2018-12-27T08:30:05.605Z,4.30
2018-12-27T08:31:04.731Z,4.30
2018-12-27T08:32:04.783Z,4.30
2018-12-27T08:33:04.838Z,4.30
2018-12-27T08:34:07.554Z,4.30
2018-12-27T08:35:11.339Z,4.30
2018-12-27T08:36:04.779Z,4.30
2018-12-27T08:37:04.980Z,4.30
2018-12-27T08:38:05.230Z,4.30
2018-12-27T08:39:10.284Z,4.30
2018-12-27T08:40:07.668Z,4.30
2018-12-27T08:41:08.372Z,4.40
2018-12-27T08:42:08.009Z,4.40
2018-12-27T08:43:05.006Z,4.30
2018-12-27T08:44:05.281Z,4.30
2018-12-27T08:45:12.985Z,4.40
2018-12-27T08:46:05.131Z,4.40
2018-12-27T08:47:05.333Z,4.40
2018-12-27T08:48:07.970Z,4.40
2018-12-27T08:49:04.917Z,4.40
2018-12-27T08:50:07.619Z,4.40
2018-12-27T08:51:08.107Z,4.40
2018-12-27T08:52:05.141Z,4.40
2018-12-27T08:53:07.699Z,4.40
2018-12-27T08:54:05.673Z,4.40
2018-12-27T08:55:04.780Z,4.40
2018-12-27T08:56:04.828Z,4.40
2018-12-27T08:57:07.380Z,4.40
2018-12-27T08:58:05.317Z,4.40
2018-12-27T08:59:07.917Z,4.40
2018-12-27T09:00:07.372Z,4.40
2018-12-27T09:01:05.337Z,4.40
2018-12-27T09:02:05.825Z,4.40
2018-12-27T09:03:07.787Z,4.40
2018-12-27T09:04:04.675Z,4.40
2018-12-27T09:05:04.895Z,4.40
2018-12-27T09:06:05.174Z,4.40
2018-12-27T09:07:05.389Z,4.40
2018-12-27T09:08:05.508Z,4.40
2018-12-27T09:09:05.859Z,4.40
2018-12-27T09:10:07.528Z,4.50
2018-12-27T09:11:05.514Z,4.40
2018-12-27T09:12:06.074Z,4.50
2018-12-27T09:13:05.248Z,4.50
2018-12-27T09:14:05.373Z,4.50
2018-12-27T09:15:05.533Z,4.50
2018-12-27T09:16:05.616Z,4.50
2018-12-27T09:17:07.383Z,4.50
2018-12-27T09:18:07.960Z,4.60
2018-12-27T09:19:07.423Z,4.60
2018-12-27T09:20:05.382Z,4.60
2018-12-27T09:21:10.657Z,4.70
2018-12-27T09:22:05.944Z,4.70
2018-12-27T09:23:07.562Z,4.70
2018-12-27T09:24:13.160Z,4.70
2018-12-27T09:25:05.195Z,4.70
2018-12-27T09:26:04.757Z,4.70
2018-12-27T09:27:04.940Z,4.80
2018-12-27T09:28:07.632Z,4.80
2018-12-27T09:29:05.481Z,4.80
2018-12-27T09:30:05.226Z,4.90
2018-12-27T09:31:05.477Z,4.90
2018-12-27T09:32:05.932Z,4.90
2018-12-27T09:33:05.083Z,4.90
2018-12-27T09:34:05.208Z,4.90
2018-12-27T09:35:05.317Z,4.90
2018-12-27T09:36:05.373Z,4.90
2018-12-27T09:37:05.551Z,4.90
2018-12-27T09:38:08.201Z,5.00
2018-12-27T09:39:07.672Z,5.00
2018-12-27T09:40:04.669Z,5.00
2018-12-27T09:41:04.844Z,5.00
2018-12-27T09:42:07.585Z,5.00
2018-12-27T09:43:07.155Z,5.00
2018-12-27T09:44:05.151Z,5.00
2018-12-27T09:45:05.207Z,5.00
2018-12-27T09:46:05.298Z,5.00
2018-12-27T09:47:05.583Z,5.00
2018-12-27T09:48:05.752Z,5.00
2018-12-27T09:49:04.973Z,5.10
2018-12-27T09:50:05.165Z,5.10
2018-12-27T09:51:05.174Z,5.10
2018-12-27T09:52:05.646Z,5.10
2018-12-27T09:53:04.666Z,5.20
2018-12-27T09:54:04.766Z,5.10
2018-12-27T09:55:04.825Z,5.20
2018-12-27T09:56:04.856Z,5.20
2018-12-27T09:57:07.426Z,5.20
2018-12-27T09:58:05.587Z,5.30
2018-12-27T09:59:04.819Z,5.30
2018-12-27T10:00:07.415Z,5.30
2018-12-27T10:01:05.522Z,5.30
2018-12-27T10:02:09.929Z,5.40
2018-12-27T10:03:07.417Z,5.40
2018-12-27T10:04:07.923Z,5.40
2018-12-27T10:05:04.891Z,5.40
2018-12-27T10:06:05.005Z,5.50
2018-12-27T10:07:05.128Z,5.40
2018-12-27T10:08:05.354Z,5.40
2018-12-27T10:09:08.063Z,5.50
2018-12-27T10:10:07.550Z,5.50
2018-12-27T10:11:05.560Z,5.50
2018-12-27T10:12:10.696Z,5.60
2018-12-27T10:13:08.110Z,5.60
2018-12-27T10:14:04.990Z,5.60
2018-12-27T10:15:07.557Z,5.60
2018-12-27T10:16:05.529Z,5.60
2018-12-27T10:17:08.141Z,5.70
2018-12-27T10:18:07.653Z,5.70
2018-12-27T10:19:08.228Z,5.70
2018-12-27T10:20:05.084Z,5.70
2018-12-27T10:21:05.179Z,5.80
2018-12-27T10:22:05.252Z,5.80
2018-12-27T10:23:05.553Z,5.80
2018-12-27T10:24:04.666Z,5.80
2018-12-27T10:25:07.328Z,5.90
2018-12-27T10:26:05.348Z,5.90
2018-12-27T10:27:05.571Z,5.90
2018-12-27T10:28:04.671Z,5.90
2018-12-27T10:29:05.360Z,5.90
2018-12-27T10:30:05.374Z,6.00
2018-12-27T10:31:07.992Z,6.00
2018-12-27T10:32:05.183Z,6.10
2018-12-27T10:33:05.995Z,6.00
2018-12-27T10:34:05.200Z,6.10
2018-12-27T10:35:07.843Z,6.10
2018-12-27T10:36:07.491Z,6.10
2018-12-27T10:37:05.567Z,6.10
2018-12-27T10:38:04.708Z,6.20
2018-12-27T10:39:04.792Z,6.20
2018-12-27T10:40:09.913Z,6.20
2018-12-27T10:41:07.438Z,6.30
2018-12-27T10:42:05.578Z,6.30
2018-12-27T10:43:04.730Z,6.30
2018-12-27T10:44:04.760Z,6.30
2018-12-27T10:45:09.918Z,6.30
2018-12-27T10:46:07.523Z,6.30
2018-12-27T10:47:04.911Z,6.30
2018-12-27T10:48:05.130Z,6.40
2018-12-27T10:49:08.909Z,6.40
2018-12-27T10:50:07.222Z,6.40
2018-12-27T10:51:12.970Z,6.40
2018-12-27T10:52:05.050Z,6.40
2018-12-27T10:53:07.640Z,6.50
2018-12-27T10:54:05.985Z,6.40
2018-12-27T10:55:07.502Z,6.50
2018-12-27T10:56:05.482Z,6.50
2018-12-27T10:57:05.684Z,6.50
2018-12-27T10:58:04.849Z,6.50
2018-12-27T10:59:04.831Z,6.60
2018-12-27T11:00:04.787Z,6.60
2018-12-27T11:01:04.958Z,6.60
2018-12-27T11:02:07.705Z,6.60
2018-12-27T11:03:05.665Z,6.60
2018-12-27T11:04:04.766Z,6.60
2018-12-27T11:05:04.836Z,6.70
2018-12-27T11:06:10.047Z,6.70
2018-12-27T11:07:07.449Z,6.70
2018-12-27T11:08:08.035Z,6.70
2018-12-27T11:09:07.476Z,6.70
2018-12-27T11:10:07.974Z,6.80
2018-12-27T11:11:04.913Z,6.70
2018-12-27T11:12:04.922Z,6.80
2018-12-27T11:13:04.968Z,6.80
2018-12-27T11:14:05.106Z,6.90
2018-12-27T11:15:07.845Z,6.80
2018-12-27T11:16:04.864Z,6.80
2018-12-27T11:17:10.144Z,6.80
2018-12-27T11:18:05.108Z,6.80
2018-12-27T11:19:05.219Z,6.90
2018-12-27T11:20:05.293Z,6.90
2018-12-27T11:21:05.538Z,6.90
2018-12-27T11:22:09.845Z,6.90
2018-12-27T11:23:07.355Z,6.90
2018-12-27T11:24:07.916Z,6.90
2018-12-27T11:25:07.391Z,6.90
2018-12-27T11:26:05.262Z,7.00
2018-12-27T11:27:05.470Z,6.90
2018-12-27T11:28:05.717Z,7.00
2018-12-27T11:29:04.952Z,7.00
2018-12-27T11:30:05.218Z,7.00
2018-12-27T11:31:08.049Z,7.00
2018-12-27T11:32:05.084Z,7.00
2018-12-27T11:33:05.426Z,7.00
2018-12-27T11:34:08.127Z,7.00
2018-12-27T11:35:05.041Z,7.00
2018-12-27T11:36:05.173Z,7.00
2018-12-27T11:37:06.099Z,7.00
2018-12-27T11:38:05.455Z,7.10
2018-12-27T11:39:05.586Z,7.10
2018-12-27T11:40:13.243Z,7.10
2018-12-27T11:41:07.770Z,7.10
2018-12-27T11:42:09.814Z,7.10
2018-12-27T11:43:04.784Z,7.10
2018-12-27T11:44:04.968Z,7.10
2018-12-27T11:45:07.637Z,7.10
2018-12-27T11:46:05.633Z,7.10
2018-12-27T11:47:04.690Z,7.10
2018-12-27T11:48:04.707Z,7.20
2018-12-27T11:49:09.990Z,7.20
2018-12-27T11:50:07.556Z,7.20
2018-12-27T11:51:05.502Z,7.10
2018-12-27T11:52:08.159Z,7.20
2018-12-27T11:53:05.077Z,7.20
2018-12-27T11:54:05.437Z,7.20
2018-12-27T11:55:08.235Z,7.20
2018-12-27T11:56:07.726Z,7.20
2018-12-27T11:57:05.625Z,7.20
2018-12-27T11:58:05.345Z,7.30
2018-12-27T11:59:05.460Z,7.30
2018-12-27T12:00:05.466Z,7.30
2018-12-27T12:01:08.054Z,7.30
2018-12-27T12:02:04.983Z,7.30
2018-12-27T12:03:05.029Z,7.30
2018-12-27T12:04:07.671Z,7.40
2018-12-27T12:05:05.705Z,7.40
2018-12-27T12:06:04.847Z,7.40
2018-12-27T12:07:07.969Z,7.40
2018-12-27T12:08:05.020Z,7.40
2018-12-27T12:09:07.674Z,7.40
2018-12-27T12:10:05.722Z,7.40
2018-12-27T12:11:04.840Z,7.40
2018-12-27T12:12:07.500Z,7.40
2018-12-27T12:13:08.131Z,7.40
2018-12-27T12:14:07.729Z,7.40
2018-12-27T12:15:05.666Z,7.40
2018-12-27T12:16:04.794Z,7.40
2018-12-27T12:17:04.937Z,7.40
2018-12-27T12:18:07.559Z,7.50
2018-12-27T12:19:07.899Z,7.50
2018-12-27T12:20:04.763Z,7.50
2018-12-27T12:21:04.872Z,7.50
2018-12-27T12:22:04.895Z,7.50
2018-12-27T12:23:07.490Z,7.50
2018-12-27T12:24:05.488Z,7.50
2018-12-27T12:25:04.868Z,7.50
2018-12-27T12:26:07.485Z,7.50
2018-12-27T12:27:05.544Z,7.50
2018-12-27T12:28:05.613Z,7.50
2018-12-27T12:29:04.748Z,7.60
2018-12-27T12:30:07.782Z,7.60
2018-12-27T12:31:04.804Z,7.60
2018-12-27T12:32:04.978Z,7.60
2018-12-27T12:33:05.189Z,7.60
2018-12-27T12:34:05.275Z,7.60
2018-12-27T12:35:07.800Z,7.60
2018-12-27T12:36:10.492Z,7.60
2018-12-27T12:37:13.770Z,7.60
2018-12-27T12:38:07.734Z,7.60
2018-12-27T12:39:07.330Z,7.60
2018-12-27T12:40:05.206Z,7.60
2018-12-27T12:41:08.126Z,7.70
2018-12-27T12:42:07.548Z,7.60
2018-12-27T12:43:08.030Z,7.70
2018-12-27T12:44:05.089Z,7.70
2018-12-27T12:45:10.345Z,7.70
2018-12-27T12:46:08.052Z,7.70
2018-12-27T12:47:07.577Z,7.70
2018-12-27T12:48:05.555Z,7.70
2018-12-27T12:49:05.683Z,7.70
2018-12-27T12:50:07.742Z,7.70
2018-12-27T12:51:07.205Z,7.80
2018-12-27T12:52:07.674Z,7.70
2018-12-27T12:53:05.705Z,7.80
2018-12-27T12:54:04.802Z,7.70
2018-12-27T12:55:07.479Z,7.80
2018-12-27T12:56:05.490Z,7.80
2018-12-27T12:57:05.516Z,7.80
2018-12-27T12:58:04.771Z,7.80
2018-12-27T12:59:04.972Z,7.80
2018-12-27T13:00:05.109Z,7.80
2018-12-27T13:01:05.179Z,7.80
2018-12-27T13:02:07.852Z,7.80
2018-12-27T13:03:04.785Z,7.80
2018-12-27T13:04:07.385Z,7.80
2018-12-27T13:05:07.810Z,7.80
2018-12-27T13:06:04.707Z,7.80
2018-12-27T13:07:04.726Z,7.80
2018-12-27T13:08:07.267Z,7.80
2018-12-27T13:09:05.159Z,7.80
2018-12-27T13:10:05.253Z,7.80
2018-12-27T13:11:07.854Z,7.80
2018-12-27T13:12:07.604Z,7.90
2018-12-27T13:13:08.175Z,7.80
2018-12-27T13:14:05.449Z,7.80
2018-12-27T13:15:04.847Z,7.90
2018-12-27T13:16:05.002Z,7.90
2018-12-27T13:17:05.264Z,7.90
2018-12-27T13:18:07.913Z,7.80